Time;durP1;ratioP1;P1;durP2;ratioP2;P2;SDS_P1;SDS_P2;PMS_P1;PMS_P2;Temp;Humidity;BMP_temperature;BMP_pressure;BME280_temperature;BME280_humidity;BME280_pressure;Samples;Min_cycle;Max_cycle;Signal;HPM_P1;HPM_P2
2024/04/06 00:00:30;;;;;;;10.20;2.50;;;;;;;11.32;100.00;101534.50;5025528;28;20277;-70
2024/04/06 00:02:55;;;;;;;10.60;2.50;;;;;;;11.06;100.00;101463.34;5024747;28;20216;-70
2024/04/06 00:05:21;;;;;;;16.17;2.50;;;;;;;11.23;100.00;101485.44;5024984;28;20524;-70
2024/04/06 00:07:46;;;;;;;11.20;2.37;;;;;;;11.54;100.00;101485.22;5024828;28;20254;-70
2024/04/06 00:10:12;;;;;;;11.67;3.10;;;;;;;11.25;100.00;101413.59;5025349;28;20597;-70
2024/04/06 00:12:37;;;;;;;13.07;2.60;;;;;;;11.50;100.00;101446.28;5025083;28;20243;-70
2024/04/06 00:15:03;;;;;;;13.80;3.07;;;;;;;10.91;100.00;101340.91;5025119;28;20246;-71
2024/04/06 00:17:29;;;;;;;16.10;2.77;;;;;;;11.47;100.00;101416.28;5024858;28;20223;-70
2024/04/06 00:19:54;;;;;;;12.60;2.30;;;;;;;11.29;100.00;101379.94;5024945;28;20435;-70
2024/04/06 00:22:20;;;;;;;19.03;2.80;;;;;;;11.04;100.00;101315.03;5023988;28;20308;-70
2024/04/06 00:24:45;;;;;;;11.43;2.53;;;;;;;11.28;100.00;101337.16;5006085;28;20211;-70
2024/04/06 00:27:11;;;;;;;15.40;2.80;;;;;;;11.28;100.00;101334.47;5009200;28;20668;-70
2024/04/06 00:29:36;;;;;;;10.43;2.27;;;;;;;11.53;100.00;101357.25;5022896;28;20649;-70
2024/04/06 00:32:01;;;;;;;13.83;3.40;;;;;;;11.00;100.00;101275.34;5007462;28;20196;-70
2024/04/06 00:34:27;;;;;;;13.93;2.70;;;;;;;11.18;100.00;101299.06;5024205;28;20204;-70
2024/04/06 00:36:54;;;;;;;14.57;2.60;;;;;;;11.24;100.00;101291.06;5010591;28;20246;-70
2024/04/06 00:39:20;;;;;;;15.90;2.83;;;;;;;11.57;100.00;101346.97;5024696;28;20181;-70
2024/04/06 00:41:45;;;;;;;9.70;2.40;;;;;;;11.14;100.00;101276.28;5024782;28;20485;-70
2024/04/06 00:44:11;;;;;;;14.83;2.10;;;;;;;11.57;100.00;101330.00;5025609;28;20703;-70
2024/04/06 00:46:36;;;;;;;13.57;2.83;;;;;;;11.63;100.00;101323.84;5024033;28;20213;-70
2024/04/06 00:49:03;;;;;;;15.17;2.43;;;;;;;11.12;100.00;101213.94;5023934;28;20291;-70
2024/04/06 00:51:28;;;;;;;12.87;2.57;;;;;;;11.03;100.00;101203.31;5024991;28;20362;-71
2024/04/06 00:53:54;;;;;;;15.93;2.80;;;;;;;10.88;100.00;101174.88;5024319;28;20531;-70
2024/04/06 00:56:20;;;;;;;14.40;3.07;;;;;;;11.64;100.00;101279.84;5007898;28;20494;-70
2024/04/06 00:58:46;;;;;;;10.93;2.40;;;;;;;11.39;100.00;101244.50;5024907;28;20181;-70
2024/04/06 01:01:12;;;;;;;13.33;2.53;;;;;;;11.50;100.00;101268.97;5024320;28;20471;-70
2024/04/06 01:03:37;;;;;;;13.50;3.03;;;;;;;11.08;100.00;101227.75;5023556;28;20250;-70
2024/04/06 01:06:03;;;;;;;12.33;2.77;;;;;;;11.30;100.00;101298.34;5006987;28;20177;-71
2024/04/06 01:08:29;;;;;;;12.93;3.00;;;;;;;10.59;100.00;101225.78;5023096;28;20567;-70
2024/04/06 01:10:54;;;;;;;16.73;3.00;;;;;;;11.20;100.00;101358.78;5024198;28;20439;-70
2024/04/06 01:13:20;;;;;;;15.47;3.07;;;;;;;10.65;100.00;101341.41;5022215;28;20204;-70
2024/04/06 01:15:46;;;;;;;15.50;2.60;;;;;;;11.05;100.00;101439.34;5024107;28;20173;-70
2024/04/06 01:18:11;;;;;;;12.40;2.60;;;;;;;11.07;100.00;101458.78;5024348;28;20776;-70
2024/04/06 01:20:41;;;;;;;14.30;2.83;;;;;;;10.93;100.00;101468.50;5023824;28;20423;-70
2024/04/06 01:23:07;;;;;;;14.50;3.17;;;;;;;11.04;100.00;101507.47;5022584;28;20200;-70
2024/04/06 01:25:33;;;;;;;13.00;2.87;;;;;;;10.10;100.00;101376.50;5006075;28;20451;-70
2024/04/06 01:27:58;;;;;;;11.23;3.13;;;;;;;10.62;100.00;101461.50;5024985;28;20181;-71
2024/04/06 01:30:23;;;;;;;14.73;2.83;;;;;;;11.14;100.00;101542.94;5023852;28;20215;-71
2024/04/06 01:32:50;;;;;;;10.63;2.87;;;;;;;11.02;100.00;101529.16;5006811;28;20215;-70
2024/04/06 01:35:16;;;;;;;11.70;2.40;;;;;;;11.14;100.00;101548.31;5005716;28;20374;-70
2024/04/06 01:37:42;;;;;;;14.13;2.90;;;;;;;10.78;100.00;101498.03;5024326;28;20466;-70
2024/04/06 01:40:08;;;;;;;13.50;2.77;;;;;;;10.73;100.00;101495.09;5024952;28;20779;-70
2024/04/06 01:42:36;;;;;;;12.50;3.20;;;;;;;11.13;100.00;101556.56;5022582;28;20248;-70
2024/04/06 01:45:02;;;;;;;15.60;3.40;;;;;;;10.64;100.00;101504.22;5024396;28;20184;-70
2024/04/06 01:47:28;;;;;;;12.30;2.73;;;;;;;11.17;100.00;101590.91;5025112;28;20435;-70
2024/04/06 01:49:54;;;;;;;11.40;2.30;;;;;;;11.21;100.00;101588.69;5024229;28;20438;-70
2024/04/06 01:52:19;;;;;;;11.43;3.07;;;;;;;11.17;100.00;101587.41;5022311;28;20442;-70
2024/04/06 01:54:45;;;;;;;11.80;2.87;;;;;;;10.96;100.00;101545.16;5023762;28;20263;-70
2024/04/06 01:57:10;;;;;;;13.93;2.87;;;;;;;11.24;100.00;101591.81;5006655;28;20172;-70
2024/04/06 01:59:39;;;;;;;12.50;2.63;;;;;;;10.48;100.00;101477.56;5023285;28;20180;-71
2024/04/06 02:02:05;;;;;;;9.43;2.60;;;;;;;10.34;100.00;101447.84;5008251;28;20219;-70
2024/04/06 02:04:30;;;;;;;11.70;3.47;;;;;;;10.97;100.00;101554.88;5023777;28;20435;-70
2024/04/06 02:06:55;;;;;;;11.90;2.70;;;;;;;10.98;100.00;101560.06;5023668;28;20180;-70
2024/04/06 02:09:21;;;;;;;12.93;3.23;;;;;;;11.02;100.00;101566.75;5023477;28;20192;-71
2024/04/06 02:11:46;;;;;;;13.30;3.20;;;;;;;11.08;100.00;101579.44;5023540;28;20790;-70
2024/04/06 02:14:12;;;;;;;12.27;2.20;;;;;;;10.97;100.00;101571.00;5023139;28;20238;-71
2024/04/06 02:16:37;;;;;;;16.43;3.00;;;;;;;10.72;100.00;101535.50;5023423;28;20180;-70
2024/04/06 02:19:02;;;;;;;14.77;2.80;;;;;;;11.10;100.00;101600.72;5008058;28;20189;-70
2024/04/06 02:21:28;;;;;;;10.40;2.73;;;;;;;10.80;100.00;101549.69;5022463;28;20212;-70
2024/04/06 02:23:54;;;;;;;13.37;3.10;;;;;;;11.11;100.00;101594.34;5021874;28;20192;-71
2024/04/06 02:26:19;;;;;;;20.77;3.53;;;;;;;10.42;100.00;101489.84;5024083;28;20198;-70
2024/04/06 02:28:44;;;;;;;16.37;3.30;;;;;;;10.98;100.00;101605.69;5007170;28;20657;-70
2024/04/06 02:31:10;;;;;;;13.70;3.20;;;;;;;10.87;100.00;101584.66;5005819;28;20200;-70
2024/04/06 02:33:35;;;;;;;17.00;3.00;;;;;;;10.19;100.00;101513.97;5022651;28;20394;-71
2024/04/06 02:36:01;;;;;;;11.90;2.73;;;;;;;10.93;100.00;101644.84;5022570;28;20744;-70
2024/04/06 02:38:26;;;;;;;13.03;2.87;;;;;;;10.90;100.00;101634.47;5022538;28;20196;-70
2024/04/06 02:40:52;;;;;;;18.80;3.83;;;;;;;10.25;100.00;101534.72;5006530;28;20184;-70
2024/04/06 02:43:17;;;;;;;12.07;2.53;;;;;;;10.85;100.00;101624.28;5022584;28;20218;-70
2024/04/06 02:45:43;;;;;;;13.17;3.03;;;;;;;10.63;100.00;101594.59;5022966;28;20181;-70
2024/04/06 02:48:09;;;;;;;10.30;2.70;;;;;;;11.00;100.00;101669.94;5005167;28;20264;-71
2024/04/06 02:50:34;;;;;;;18.13;4.60;;;;;;;10.99;100.00;101650.34;5020370;28;21040;-70
2024/04/06 02:53:00;;;;;;;22.03;4.00;;;;;;;11.07;100.00;101668.19;5021618;28;20228;-70
2024/04/06 02:55:25;;;;;;;11.67;2.80;;;;;;;10.85;100.00;101640.38;5022317;28;20183;-70
2024/04/06 02:57:50;;;;;;;10.10;2.90;;;;;;;10.42;100.00;101566.81;5023566;28;20545;-70
2024/04/06 03:00:16;;;;;;;13.67;2.70;;;;;;;10.84;100.00;101644.91;5022874;28;20530;-70
2024/04/06 03:02:41;;;;;;;14.43;3.23;;;;;;;10.30;100.00;101566.34;5023301;28;20669;-70
2024/04/06 03:05:08;;;;;;;13.63;3.10;;;;;;;10.91;100.00;101663.81;5023583;28;20176;-70
2024/04/06 03:07:34;;;;;;;12.97;3.10;;;;;;;11.09;100.00;101683.09;5005460;28;20299;-70
2024/04/06 03:09:59;;;;;;;10.87;3.00;;;;;;;10.77;100.00;101624.34;5005969;28;20762;-71
2024/04/06 03:12:25;;;;;;;15.30;4.07;;;;;;;10.78;100.00;101610.72;5022245;28;20230;-70
2024/04/06 03:14:51;;;;;;;15.30;3.00;;;;;;;10.53;100.00;101559.16;5022118;28;20810;-70
2024/04/06 03:17:16;;;;;;;10.00;2.90;;;;;;;10.62;100.00;101557.25;5005451;28;20180;-70
2024/04/06 03:19:41;;;;;;;12.70;3.10;;;;;;;10.81;100.00;101588.06;5022557;28;20440;-70
2024/04/06 03:22:07;;;;;;;10.13;2.60;;;;;;;10.28;100.00;101496.84;5022877;28;20220;-71
2024/04/06 03:24:32;;;;;;;13.40;3.53;;;;;;;10.78;100.00;101564.28;5022875;28;20230;-70
2024/04/06 03:26:58;;;;;;;11.70;3.17;;;;;;;11.03;100.00;101599.78;5023254;28;20181;-70
2024/04/06 03:29:23;;;;;;;10.43;3.40;;;;;;;11.28;100.00;101635.25;5021183;28;20204;-70
2024/04/06 03:31:49;;;;;;;14.03;3.13;;;;;;;11.30;100.00;101628.69;5004310;28;20259;-71
2024/04/06 03:34:14;;;;;;;15.80;3.77;;;;;;;11.31;100.00;101622.31;5022665;28;20197;-70
2024/04/06 03:36:40;;;;;;;13.90;3.60;;;;;;;11.23;100.00;101606.28;5007393;28;20184;-70
2024/04/06 03:39:06;;;;;;;17.80;3.97;;;;;;;10.62;100.00;101509.78;5021421;28;20200;-70
2024/04/06 03:41:31;;;;;;;12.10;2.90;;;;;;;11.37;100.00;101606.47;5023312;28;20220;-70
2024/04/06 03:43:57;;;;;;;15.37;3.90;;;;;;;11.31;100.00;101603.50;5022620;28;20562;-70
2024/04/06 03:46:28;;;;;;;12.87;3.13;;;;;;;10.63;100.00;101494.50;5021787;28;20181;-70
2024/04/06 03:48:54;;;;;;;17.37;3.73;;;;;;;10.52;100.00;101463.59;5023137;28;20453;-70
2024/04/06 03:51:19;;;;;;;14.00;3.07;;;;;;;11.39;100.00;101588.31;5003025;28;20960;-70
2024/04/06 03:53:45;;;;;;;14.00;3.30;;;;;;;11.23;100.00;101546.38;5022292;28;20358;-71
2024/04/06 03:56:10;;;;;;;13.97;3.00;;;;;;;11.29;100.00;101540.25;5006509;28;20184;-70
2024/04/06 03:58:35;;;;;;;11.53;3.00;;;;;;;11.40;100.00;101553.22;5007143;28;20196;-70
2024/04/06 04:01:01;;;;;;;11.77;3.10;;;;;;;11.17;100.00;101536.38;5024195;28;20192;-70
2024/04/06 04:03:26;;;;;;;14.43;2.50;;;;;;;10.50;100.00;101454.91;5024478;28;20212;-70
2024/04/06 04:05:52;;;;;;;12.37;3.00;;;;;;;11.36;100.00;101586.00;5024965;28;20187;-70
2024/04/06 04:08:18;;;;;;;12.60;2.80;;;;;;;10.08;100.00;101393.78;5024140;28;20185;-70
2024/04/06 04:10:43;;;;;;;11.80;2.83;;;;;;;10.62;100.00;101474.06;5024455;28;20308;-70
2024/04/06 04:13:12;;;;;;;11.23;3.10;;;;;;;10.70;100.00;101478.50;5025177;28;20199;-70
2024/04/06 04:15:39;;;;;;;14.57;3.80;;;;;;;11.16;100.00;101543.59;5008710;28;20180;-70
2024/04/06 04:18:05;;;;;;;9.93;2.70;;;;;;;10.52;100.00;101439.44;5025076;28;20521;-70
2024/04/06 04:20:32;;;;;;;11.80;2.83;;;;;;;11.29;100.00;101559.88;5024183;28;20488;-70
2024/04/06 04:22:58;;;;;;;10.20;2.80;;;;;;;10.59;100.00;101450.31;5008786;28;20494;-71
2024/04/06 04:25:23;;;;;;;16.13;3.73;;;;;;;10.56;100.00;101462.22;5024484;28;20438;-70
2024/04/06 04:27:49;;;;;;;14.03;3.50;;;;;;;11.17;100.00;101555.19;5007967;28;20189;-70
2024/04/06 04:30:15;;;;;;;8.77;3.20;;;;;;;11.42;100.00;101604.88;5008227;28;20288;-70
2024/04/06 04:32:41;;;;;;;15.07;3.73;;;;;;;10.58;100.00;101487.00;5025328;28;20778;-70
2024/04/06 04:35:07;;;;;;;10.83;2.70;;;;;;;10.58;100.00;101494.22;5025287;28;20439;-71
2024/04/06 04:37:32;;;;;;;11.20;3.53;;;;;;;11.25;100.00;101573.84;5025125;28;20469;-71
2024/04/06 04:39:58;;;;;;;11.10;3.33;;;;;;;11.25;100.00;101573.84;5007976;28;20185;-70
2024/04/06 04:42:23;;;;;;;9.10;3.40;;;;;;;11.19;100.00;101553.94;5023517;28;20220;-70
2024/04/06 04:44:49;;;;;;;9.20;3.40;;;;;;;11.45;100.00;101592.94;5024976;28;20590;-70
2024/04/06 04:47:14;;;;;;;13.77;4.07;;;;;;;11.41;100.00;101576.38;5007905;28;20561;-70
2024/04/06 04:49:40;;;;;;;11.00;3.80;;;;;;;10.80;100.00;101479.06;5023459;28;20180;-70
2024/04/06 04:52:06;;;;;;;11.20;3.80;;;;;;;10.75;100.00;101468.06;5025468;28;20196;-70
2024/04/06 04:54:31;;;;;;;13.43;4.10;;;;;;;10.69;100.00;101475.00;5008350;28;20176;-70
2024/04/06 04:56:56;;;;;;;9.80;3.73;;;;;;;11.20;100.00;101565.56;5024705;28;20172;-70
2024/04/06 04:59:22;;;;;;;11.93;4.83;;;;;;;11.33;100.00;101600.63;5022961;28;20184;-70
2024/04/06 05:01:47;;;;;;;10.10;4.20;;;;;;;11.34;100.00;101613.06;5024323;28;20732;-70
2024/04/06 05:04:13;;;;;;;11.47;4.67;;;;;;;11.23;100.00;101602.78;5007321;28;20188;-71
2024/04/06 05:06:39;;;;;;;10.70;3.90;;;;;;;11.16;100.00;101617.94;5022440;28;20180;-70
2024/04/06 05:09:06;;;;;;;9.10;4.57;;;;;;;10.86;100.00;101545.44;5021967;28;20215;-70
2024/04/06 05:11:32;;;;;;;11.20;4.83;;;;;;;11.54;100.00;101658.97;5022716;28;20553;-71
2024/04/06 05:13:58;;;;;;;11.13;4.90;;;;;;;10.96;100.00;101569.31;5008026;28;20438;-70
2024/04/06 05:16:24;;;;;;;10.00;4.60;;;;;;;11.44;100.00;101672.69;5006467;28;20530;-71
2024/04/06 05:18:49;;;;;;;12.93;5.73;;;;;;;11.51;100.00;101697.81;5006545;28;20483;-70
2024/04/06 05:21:15;;;;;;;11.43;5.50;;;;;;;11.48;100.00;101698.16;5023921;28;20220;-71
2024/04/06 05:23:40;;;;;;;11.10;5.70;;;;;;;11.39;100.00;101688.53;5023389;28;20191;-71
2024/04/06 05:26:06;;;;;;;13.17;5.20;;;;;;;11.18;100.00;101656.19;5024210;28;20195;-70
2024/04/06 05:28:31;;;;;;;10.70;4.60;;;;;;;11.07;100.00;101642.19;5023176;28;20243;-70
2024/04/06 05:30:57;;;;;;;13.43;5.00;;;;;;;11.20;100.00;101697.13;5023926;28;20181;-70
2024/04/06 05:33:23;;;;;;;14.10;5.20;;;;;;;11.38;100.00;101719.09;5021904;28;20215;-70
2024/04/06 05:35:50;;;;;;;9.70;5.03;;;;;;;10.93;100.00;101631.41;5020339;28;20234;-71
2024/04/06 05:38:17;;;;;;;16.70;6.30;;;;;;;11.32;100.00;101701.88;5006944;28;20434;-70
2024/04/06 05:40:44;;;;;;;13.40;5.83;;;;;;;10.71;100.00;101622.41;5022965;28;20989;-70
2024/04/06 05:43:10;;;;;;;13.33;5.50;;;;;;;10.73;100.00;101612.28;5008568;28;20462;-70
2024/04/06 05:45:36;;;;;;;21.27;6.17;;;;;;;11.51;100.00;101754.25;5008979;28;20442;-70
2024/04/06 05:48:04;;;;;;;10.73;5.70;;;;;;;11.35;100.00;101724.84;5005439;28;20927;-70
2024/04/06 05:50:30;;;;;;;13.30;6.10;;;;;;;10.84;100.00;101662.84;5021780;28;20446;-70
2024/04/06 05:52:57;;;;;;;11.93;6.30;;;;;;;11.50;100.00;101787.47;5007194;28;20458;-70
2024/04/06 05:55:22;;;;;;;11.27;6.07;;;;;;;11.15;100.00;101704.88;5022390;28;20442;-70
2024/04/06 05:57:48;;;;;;;11.53;6.40;;;;;;;11.41;100.00;101742.91;5008168;28;20443;-71
2024/04/06 06:00:15;;;;;;;17.77;7.00;;;;;;;10.88;100.00;101641.84;5008747;28;20188;-71
2024/04/06 06:02:41;;;;;;;12.47;6.57;;;;;;;11.17;100.00;101681.38;5020231;28;20212;-70
2024/04/06 06:05:06;;;;;;;10.73;6.83;;;;;;;11.93;100.00;101776.19;5004924;28;20446;-70
2024/04/06 06:07:32;;;;;;;11.20;6.40;;;;;;;11.97;100.00;101786.38;5022049;28;20444;-70
2024/04/06 06:09:57;;;;;;;11.23;6.27;;;;;;;11.96;100.00;101786.56;5023862;28;20181;-70
2024/04/06 06:12:24;;;;;;;11.03;6.77;;;;;;;11.67;100.00;101723.69;5022529;28;20262;-70
2024/04/06 06:14:50;;;;;;;12.10;6.83;;;;;;;11.70;100.00;101738.59;5006635;28;20172;-70
2024/04/06 06:17:16;;;;;;;13.40;6.70;;;;;;;11.42;100.00;101672.03;5008065;28;20984;-70
2024/04/06 06:19:42;;;;;;;11.70;6.80;;;;;;;12.22;100.00;101796.88;5023059;28;20662;-70
2024/04/06 06:22:08;;;;;;;11.73;6.50;;;;;;;11.82;100.00;101726.38;5021598;28;20532;-70
2024/04/06 06:24:33;;;;;;;13.87;6.80;;;;;;;12.19;100.00;101776.56;5006374;28;20184;-70
2024/04/06 06:26:58;;;;;;;9.50;6.00;;;;;;;11.43;100.00;101649.56;5024769;28;20535;-71
2024/04/06 06:29:24;;;;;;;13.13;7.10;;;;;;;12.20;100.00;101769.31;5022890;28;20189;-70
2024/04/06 06:31:49;;;;;;;10.87;6.40;;;;;;;11.45;100.00;101674.34;5006645;28;20265;-70
2024/04/06 06:34:15;;;;;;;12.73;5.50;;;;;;;12.24;100.00;101781.38;5021662;28;20614;-70
2024/04/06 06:36:40;;;;;;;10.47;6.30;;;;;;;11.71;100.00;101683.81;5023054;28;20698;-70
2024/04/06 06:39:06;;;;;;;15.77;7.50;;;;;;;11.79;100.00;101667.59;5021087;28;20204;-70
2024/04/06 06:41:32;;;;;;;10.47;6.70;;;;;;;11.62;100.00;101644.63;5022037;28;20221;-71
2024/04/06 06:43:58;;;;;;;10.60;6.23;;;;;;;12.30;100.00;101737.59;5005208;28;20176;-70
2024/04/06 06:46:23;;;;;;;13.90;7.33;;;;;;;12.52;100.00;101761.84;5022902;28;20529;-70
2024/04/06 06:48:49;;;;;;;11.87;6.73;;;;;;;12.47;100.00;101751.66;5005562;28;20180;-70
2024/04/06 06:51:14;;;;;;;10.83;6.80;;;;;;;11.70;100.00;101612.28;5023813;28;20184;-70
2024/04/06 06:53:39;;;;;;;11.20;6.70;;;;;;;12.10;100.00;101701.53;5021989;28;20188;-70
2024/04/06 06:56:05;;;;;;;10.10;6.20;;;;;;;11.86;100.00;101640.84;5023372;28;20220;-70
2024/04/06 06:58:31;;;;;;;12.60;6.47;;;;;;;12.10;100.00;101683.56;5022762;28;20260;-70
2024/04/06 07:00:57;;;;;;;9.50;5.70;;;;;;;12.74;100.00;101787.78;5004522;28;20184;-70
2024/04/06 07:03:22;;;;;;;13.20;6.70;;;;;;;12.51;100.00;101750.25;5022711;28;20455;-70
2024/04/06 07:05:48;;;;;;;11.53;5.90;;;;;;;12.58;100.00;101748.50;5021832;28;20181;-71
2024/04/06 07:08:14;;;;;;;9.97;6.00;;;;;;;12.40;100.00;101721.97;5021783;28;20910;-71
2024/04/06 07:10:40;;;;;;;10.07;5.50;;;;;;;13.03;100.00;101811.09;5023032;28;20176;-71
2024/04/06 07:13:06;;;;;;;10.60;5.90;;;;;;;12.47;100.00;101723.91;5004573;28;20457;-70
2024/04/06 07:15:32;;;;;;;13.07;6.47;;;;;;;13.01;100.00;101799.66;5022769;28;20817;-70
2024/04/06 07:17:57;;;;;;;9.60;5.13;;;;;;;12.98;100.00;101783.06;5022418;28;20207;-70
2024/04/06 07:20:23;;;;;;;8.70;5.40;;;;;;;12.54;100.00;101719.44;5021605;28;20432;-70
2024/04/06 07:22:48;;;;;;;10.87;5.40;;;;;;;12.50;100.00;101702.84;5022037;28;20235;-70
2024/04/06 07:25:14;;;;;;;11.93;5.50;;;;;;;12.47;100.00;101697.84;5022516;28;20227;-70
2024/04/06 07:27:39;;;;;;;14.17;6.30;;;;;;;13.29;100.00;101804.31;5021515;28;20180;-70
2024/04/06 07:30:05;;;;;;;10.93;5.93;;;;;;;12.61;100.00;101696.97;5022059;28;20655;-70
2024/04/06 07:32:31;;;;;;;10.97;5.67;;;;;;;13.14;100.00;101763.97;5024474;28;20192;-71
2024/04/06 07:34:56;;;;;;;9.00;5.03;;;;;;;13.32;100.00;101774.31;5009003;28;20427;-70
2024/04/06 07:37:22;;;;;;;9.90;5.00;;;;;;;13.01;100.00;101715.34;5025756;28;20536;-70
2024/04/06 07:39:47;;;;;;;8.83;4.07;;;;;;;12.91;100.00;101694.13;5025190;28;20172;-70
2024/04/06 07:42:13;;;;;;;12.73;5.20;;;;;;;13.42;100.00;101755.09;5024665;28;20208;-70
2024/04/06 07:44:38;;;;;;;8.70;4.40;;;;;;;13.24;100.00;101723.22;5026318;28;20191;-70
2024/04/06 07:47:04;;;;;;;10.50;4.83;;;;;;;13.35;100.00;101738.88;5027961;28;20184;-70
2024/04/06 07:49:29;;;;;;;10.40;4.40;;;;;;;13.37;100.00;101711.75;5025638;28;20180;-70
2024/04/06 07:51:55;;;;;;;8.30;4.37;;;;;;;13.34;100.00;101668.00;5026335;28;20204;-70
2024/04/06 07:54:20;;;;;;;10.37;4.27;;;;;;;13.25;100.00;101655.72;5023897;28;20239;-71
2024/04/06 07:56:45;;;;;;;8.30;4.20;;;;;;;14.00;100.00;101771.88;5024271;28;20172;-70
2024/04/06 07:59:11;;;;;;;8.63;4.03;;;;;;;13.26;100.00;101635.81;5009433;28;20554;-70
2024/04/06 08:01:36;;;;;;;10.03;4.40;;;;;;;13.91;100.00;101713.75;5025991;28;20227;-70
2024/04/06 08:04:02;;;;;;;11.80;3.90;;;;;;;13.54;100.00;101643.03;5024552;28;20181;-70
2024/04/06 08:06:27;;;;;;;11.80;4.43;;;;;;;14.20;100.00;101735.06;5024632;28;20184;-71
2024/04/06 08:08:52;;;;;;;10.77;3.40;;;;;;;14.22;100.00;101687.09;5025864;28;20231;-70
2024/04/06 08:11:18;;;;;;;8.80;3.30;;;;;;;14.28;100.00;101690.03;5009042;28;20263;-70
2024/04/06 08:13:43;;;;;;;8.67;3.60;;;;;;;14.32;100.00;101658.91;5024749;28;20180;-71
2024/04/06 08:16:09;;;;;;;8.90;3.30;;;;;;;14.81;100.00;101709.09;5026271;28;20198;-71
2024/04/06 08:18:34;;;;;;;8.50;3.20;;;;;;;14.12;100.00;101575.25;5024380;28;20275;-70
2024/04/06 08:20:59;;;;;;;10.90;3.17;;;;;;;14.89;100.00;101680.00;5026130;28;20179;-70
2024/04/06 08:23:25;;;;;;;9.37;3.07;;;;;;;15.04;100.00;101677.13;5007504;28;20177;-70
2024/04/06 08:25:54;;;;;;;9.30;2.80;;;;;;;15.01;100.00;101657.78;5026289;28;20176;-70
2024/04/06 08:28:19;;;;;;;10.47;3.00;;;;;;;14.37;100.00;101538.50;5007930;28;20170;-70
2024/04/06 08:30:45;;;;;;;10.20;2.90;;;;;;;14.88;100.00;101569.50;5025133;28;20434;-70
2024/04/06 08:33:10;;;;;;;8.47;2.70;;;;;;;15.25;100.00;101586.88;5024924;28;20967;-70
2024/04/06 08:35:37;;;;;;;6.90;2.80;;;;;;;14.46;100.00;101474.34;5024997;28;20326;-70
2024/04/06 08:38:04;;;;;;;8.00;2.77;;;;;;;15.26;100.00;101549.88;5005031;28;20678;-70
2024/04/06 08:40:30;;;;;;;6.30;2.07;;;;;;;15.31;100.00;101523.88;5022550;28;20522;-70
2024/04/06 08:43:08;;;;;;;8.18;2.65;;;;;;;15.13;100.00;101457.00;5023489;28;20437;-70
2024/04/06 08:45:34;;;;;;;7.60;2.40;;;;;;;14.96;100.00;101336.16;5004279;28;20533;-70
2024/04/06 08:47:59;;;;;;;7.57;2.33;;;;;;;15.07;100.00;101298.47;5024551;28;20510;-71
2024/04/06 08:50:25;;;;;;;7.77;2.40;;;;;;;15.04;100.00;101246.72;5022936;28;20182;-71
2024/04/06 08:52:52;;;;;;;5.80;2.10;;;;;;;15.69;100.00;101327.56;5023591;28;20236;-70
2024/04/06 08:55:17;;;;;;;8.83;2.50;;;;;;;15.22;100.00;101217.09;5025286;28;20435;-70
2024/04/06 08:57:43;;;;;;;11.30;2.93;;;;;;;15.27;100.00;101205.59;5024461;28;20631;-70
2024/04/06 09:00:12;;;;;;;6.80;2.37;;;;;;;15.02;100.00;101146.19;5025103;28;20184;-70
2024/04/06 09:02:38;;;;;;;8.50;2.50;;;;;;;15.38;100.00;101175.97;5024457;28;20265;-70
2024/04/06 09:05:05;;;;;;;9.10;2.80;;;;;;;15.50;100.00;101159.84;5009227;28;20541;-70
2024/04/06 09:07:30;;;;;;;6.65;2.40;;;;;;;15.76;100.00;129012.25;5009094;28;20184;-71
2024/04/06 09:09:56;;;;;;;7.50;2.10;;;;;;;16.15;100.00;101189.13;5009051;28;20435;-71
2024/04/06 09:12:22;;;;;;;;;;;;;;;16.38;100.00;101161.34;5008950;28;20248;-70
2024/04/06 09:14:50;;;;;;;13.40;2.50;;;;;;;16.33;100.00;101115.19;5024025;28;19923;-70
2024/04/06 09:17:17;;;;;;;8.15;2.45;;;;;;;16.59;100.00;101067.09;5023705;28;20180;-70
2024/04/06 09:19:43;;;;;;;;;;;;;;;16.83;100.00;101005.69;5023753;28;20422;-71
2024/04/06 09:22:09;;;;;;;;;;;;;;;16.91;100.00;100895.06;5006921;28;20657;-71
2024/04/06 09:24:34;;;;;;;;;;;;;;;16.83;100.00;100788.97;5007832;28;20262;-70
2024/04/06 09:27:19;;;;;;;;;;;;;;;16.84;100.00;100721.00;5009612;28;20388;-70
2024/04/06 09:29:47;;;;;;;;;;;;;;;16.82;100.00;100530.00;5008738;28;19970;-71
2024/04/06 09:32:16;;;;;;;;;;;;;;;16.84;100.00;100460.16;5023369;28;19917;-70
2024/04/06 09:35:02;;;;;;;;;;;;;;;16.81;100.00;100439.00;5008062;28;19999;-70
2024/04/06 09:37:33;;;;;;;6.30;1.40;;;;;;;16.19;100.00;100310.03;5005646;28;20387;-70
2024/04/06 09:39:59;;;;;;;6.43;1.70;;;;;;;16.19;100.00;100334.38;5024752;28;20430;-70
2024/04/06 09:42:25;;;;;;;8.90;1.60;;;;;;;16.80;100.00;100404.84;5005251;28;20471;-71
2024/04/06 09:44:53;;;;;;;7.20;1.90;;;;;;;16.31;100.00;100329.69;5006478;28;20467;-70
2024/04/06 09:47:21;;;;;;;6.07;1.67;;;;;;;16.18;100.00;100412.03;5008601;28;20185;-70
2024/04/06 09:49:48;;;;;;;5.83;1.90;;;;;;;16.31;100.00;100416.28;5006754;28;20431;-70
2024/04/06 09:52:14;;;;;;;7.43;1.87;;;;;;;16.74;100.00;100490.56;5006434;28;20469;-71
2024/04/06 09:54:40;;;;;;;6.40;1.60;;;;;;;16.38;100.00;100387.16;5023342;28;20772;-71
2024/04/06 09:57:06;;;;;;;8.90;1.70;;;;;;;17.07;100.00;100448.28;5024145;28;20443;-70
2024/04/06 09:59:31;;;;;;;6.07;1.53;;;;;;;16.52;100.00;100303.72;5006481;28;20653;-71
2024/04/06 10:01:58;;;;;;;5.87;1.50;;;;;;;16.70;100.00;100305.31;5007297;28;20492;-70
2024/04/06 10:04:33;;;;;;;7.50;1.60;;;;;;;16.34;100.00;100315.66;5022841;28;20297;-71
2024/04/06 10:07:02;;;;;;;6.67;1.80;;;;;;;16.47;100.00;100318.00;5023313;28;20429;-70
2024/04/06 10:09:37;;;;;;;8.43;2.00;;;;;;;16.89;100.00;100412.28;5003641;28;20446;-71
2024/04/06 10:12:06;;;;;;;7.03;2.07;;;;;;;17.59;100.00;100367.28;5021935;28;20476;-71
2024/04/06 10:14:32;;;;;;;6.53;2.00;;;;;;;16.82;100.00;100297.06;5005213;28;20430;-70
2024/04/06 10:17:08;;;;;;;7.20;1.50;;;;;;;17.44;100.00;100366.28;5023257;28;20438;-70
2024/04/06 10:19:35;;;;;;;11.80;2.50;;;;;;;17.14;100.00;100177.91;5021536;28;20681;-71
2024/04/06 10:22:04;;;;;;;5.93;1.40;;;;;;;17.39;100.00;100164.56;5021512;28;20495;-71
2024/04/06 10:24:29;;;;;;;8.50;1.93;;;;;;;17.39;100.00;100213.38;5005471;28;20431;-71
2024/04/06 10:26:57;;;;;;;6.83;1.60;;;;;;;17.12;100.00;100182.78;5007300;28;20431;-71
2024/04/06 10:29:23;;;;;;;6.90;1.80;;;;;;;17.71;100.00;100302.00;5007004;28;20272;-71
2024/04/06 10:31:49;;;;;;;9.30;2.00;;;;;;;17.75;100.00;100224.47;5021165;28;20530;-70
2024/04/06 10:34:16;;;;;;;8.50;1.80;;;;;;;17.34;100.00;100190.81;5021787;28;20788;-71
2024/04/06 10:36:42;;;;;;;6.10;1.57;;;;;;;17.93;100.00;100211.56;5005992;28;20431;-71
2024/04/06 10:39:08;;;;;;;7.65;1.65;;;;;;;18.56;100.00;100265.91;5021011;28;20447;-71
2024/04/06 10:41:34;;;;;;;5.93;1.40;;;;;;;17.93;100.00;100138.31;5020325;28;20473;-71
2024/04/06 10:44:00;;;;;;;;;;;;;;;18.53;100.00;100242.81;5022741;28;20091;-71
2024/04/06 10:46:26;;;;;;;;;;;;;;;18.74;100.00;100232.84;5006006;28;19990;-71
2024/04/06 10:48:51;;;;;;;;;;;;;;;18.50;100.00;100248.78;5004651;28;20520;-71
2024/04/06 10:51:17;;;;;;;;;;;;;;;19.02;100.00;100219.88;5022292;28;19916;-70
2024/04/06 10:53:43;;;;;;;5.80;1.40;;;;;;;18.53;100.00;100193.94;5022262;28;20018;-71
2024/04/06 10:56:09;;;;;;;5.57;1.20;;;;;;;18.64;100.00;100170.34;5022602;28;20434;-71
2024/04/06 10:58:34;;;;;;;6.53;1.70;;;;;;;18.93;100.00;100212.25;5004379;28;21150;-71
2024/04/06 11:01:15;;;;;;;7.60;1.43;;;;;;;18.37;100.00;100171.34;5022878;28;20871;-71
2024/04/06 11:03:41;;;;;;;5.60;1.30;;;;;;;19.13;100.00;100279.41;5021066;28;20196;-70
2024/04/06 11:06:07;;;;;;;9.60;1.90;;;;;;;19.07;100.00;100236.19;5023961;28;20892;-71
2024/04/06 11:08:33;;;;;;;7.17;1.37;;;;;;;18.49;100.00;100165.69;5007496;28;20443;-71